Time;durP1;ratioP1;P1;durP2;ratioP2;P2;SDS_P1;SDS_P2;PMS_P1;PMS_P2;Temp;Humidity;BMP_temperature;BMP_pressure;BME280_temperature;BME280_humidity;BME280_pressure;Samples;Min_cycle;Max_cycle;Signal;HPM_P1;HPM_P2
2022/08/26 00:02:09;;;;;;;;;;;23.60;81.20;;;;;;5117331;28;20045;-56
2022/08/26 00:04:35;;;;;;;;;;;23.60;81.20;;;;;;5115839;28;19969;-54
2022/08/26 00:07:00;;;;;;;;;;;23.60;81.20;;;;;;5099004;28;19916;-56
2022/08/26 00:09:26;;;;;;;;;;;23.60;81.20;;;;;;5117163;28;19914;-54
2022/08/26 00:11:52;;;;;;;;;;;23.60;81.20;;;;;;5117186;28;20277;-55
2022/08/26 00:14:18;;;;;;;;;;;23.60;81.20;;;;;;5116805;28;20350;-55
2022/08/26 00:16:43;;;;;;;;;;;23.60;81.20;;;;;;5117273;28;19965;-55
2022/08/26 00:19:09;;;;;;;;;;;23.60;81.20;;;;;;5116715;28;19914;-56
2022/08/26 00:21:35;;;;;;;;;;;23.60;81.30;;;;;;5116900;28;20346;-56
2022/08/26 00:24:00;;;;;;;;;;;23.60;81.20;;;;;;5116624;28;19915;-56
2022/08/26 00:26:26;;;;;;;;;;;23.60;81.20;;;;;;5116474;28;19919;-55
2022/08/26 00:28:51;;;;;;;;;;;23.60;81.20;;;;;;5116894;28;19950;-56
2022/08/26 00:31:16;;;;;;;;;;;23.60;81.30;;;;;;5116563;28;19908;-57
2022/08/26 00:33:42;;;;;;;;;;;23.60;81.20;;;;;;5116791;28;19908;-57
2022/08/26 00:36:08;;;;;;;;;;;23.60;81.30;;;;;;5116468;28;20330;-54
2022/08/26 00:38:34;;;;;;;;;;;23.60;81.20;;;;;;5116424;28;19931;-53
2022/08/26 00:41:00;;;;;;;;;;;23.60;81.30;;;;;;5116634;28;19915;-56
2022/08/26 00:43:29;;;;;;;;;;;23.60;81.30;;;;;;5116519;28;19918;-55
2022/08/26 00:45:58;;;;;;;;;;;23.60;81.30;;;;;;5116115;28;19912;-56
2022/08/26 00:48:24;;;;;;;;;;;23.60;81.30;;;;;;5116159;28;20393;-53
2022/08/26 00:51:13;;;;;;;;;;;23.60;81.30;;;;;;5115876;28;19947;-55
2022/08/26 00:53:42;;;;;;;;;;;23.60;81.30;;;;;;5116387;28;19947;-54
2022/08/26 00:56:20;;;;;;;;;;;23.60;81.30;;;;;;5116315;28;19914;-55
2022/08/26 00:58:46;;;;;;;;;;;23.60;81.30;;;;;;5116200;28;19915;-57
2022/08/26 01:01:13;;;;;;;;;;;23.60;81.30;;;;;;5116137;28;19950;-56
2022/08/26 01:03:39;;;;;;;;;;;23.60;81.30;;;;;;5115719;28;20411;-57
2022/08/26 01:06:05;;;;;;;;;;;23.60;81.30;;;;;;5115695;28;19912;-56
2022/08/26 01:08:31;;;;;;;;;;;23.60;81.30;;;;;;5115938;28;19912;-57
2022/08/26 01:10:57;;;;;;;;;;;23.60;81.30;;;;;;5115665;28;20003;-56
2022/08/26 01:13:22;;;;;;;;;;;23.60;81.30;;;;;;5116213;28;19907;-56
2022/08/26 01:15:49;;;;;;;;;;;23.60;81.30;;;;;;5115261;28;19919;-57
2022/08/26 01:18:15;;;;;;;;;;;23.60;81.40;;;;;;5115507;28;19931;-57
2022/08/26 01:21:00;;;;;;;;;;;23.60;81.30;;;;;;5115487;28;19936;-56
2022/08/26 01:23:27;;;;;;;;;;;23.60;81.30;;;;;;5115794;28;19965;-53
2022/08/26 01:25:55;;;;;;;;;;;23.60;81.30;;;;;;5115573;28;19919;-55
2022/08/26 01:28:25;;;;;;;;;;;23.60;81.30;;;;;;5115917;28;19916;-54
2022/08/26 01:30:52;;;;;;;;;;;23.60;81.30;;;;;;5115296;28;19911;-56
2022/08/26 01:33:19;;;;;;;;;;;23.60;81.30;;;;;;5097300;28;20040;-56
2022/08/26 01:35:45;;;;;;;;;;;23.60;81.30;;;;;;5115402;28;19914;-56
2022/08/26 01:38:11;;;;;;;;;;;23.60;81.30;;;;;;5115158;28;19911;-55
2022/08/26 01:40:38;;;;;;;;;;;23.60;81.30;;;;;;5115399;28;19992;-57
2022/08/26 01:43:06;;;;;;;;;;;23.60;81.30;;;;;;5115449;28;19911;-56
2022/08/26 01:45:33;;;;;;;;;;;23.60;81.30;;;;;;5114893;28;19912;-57
2022/08/26 01:48:00;;;;;;;;;;;23.60;81.40;;;;;;5096655;28;20002;-56
2022/08/26 01:50:33;;;;;;;;;;;23.60;81.30;;;;;;5114778;28;19939;-55
2022/08/26 01:53:00;;;;;;;;;;;23.60;81.40;;;;;;5115485;28;19915;-57
2022/08/26 01:55:27;;;;;;;;;;;23.60;81.90;;;;;;5114752;28;20366;-56
2022/08/26 01:57:54;;;;;;;;;;;23.60;81.30;;;;;;5115012;28;19908;-54
2022/08/26 02:00:19;;;;;;;;;;;23.60;81.40;;;;;;5096802;28;20416;-56
2022/08/26 02:02:46;;;;;;;;;;;23.60;81.30;;;;;;5114829;28;20002;-54
2022/08/26 02:05:17;;;;;;;;;;;23.60;81.40;;;;;;5114871;28;19938;-57
2022/08/26 02:07:43;;;;;;;;;;;23.60;81.40;;;;;;5114648;28;19930;-55
2022/08/26 02:10:09;;;;;;;;;;;23.60;81.40;;;;;;5114760;28;20343;-55
2022/08/26 02:12:35;;;;;;;;;;;23.60;81.40;;;;;;5096502;28;19915;-55
2022/08/26 02:15:03;;;;;;;;;;;23.60;81.40;;;;;;5096351;28;19919;-57
2022/08/26 02:17:36;;;;;;;;;;;23.60;81.90;;;;;;5114539;28;19999;-56
2022/08/26 02:20:02;;;;;;;;;;;23.60;81.40;;;;;;5115168;28;19908;-57
2022/08/26 02:22:29;;;;;;;;;;;23.60;81.40;;;;;;5114683;28;20372;-56
2022/08/26 02:24:56;;;;;;;;;;;23.60;81.40;;;;;;5114952;28;20025;-57
2022/08/26 02:27:27;;;;;;;;;;;23.60;81.40;;;;;;5095677;28;19911;-55
2022/08/26 02:29:58;;;;;;;;;;;23.60;81.40;;;;;;5114567;28;19916;-56
2022/08/26 02:32:24;;;;;;;;;;;23.60;81.40;;;;;;5114375;28;20022;-56
2022/08/26 02:34:49;;;;;;;;;;;23.60;81.40;;;;;;5114600;28;19973;-56
2022/08/26 02:37:15;;;;;;;;;;;23.60;81.40;;;;;;5114516;28;19908;-53
2022/08/26 02:39:42;;;;;;;;;;;23.60;81.40;;;;;;5114306;28;20332;-53
2022/08/26 02:42:07;;;;;;;;;;;23.60;81.40;;;;;;5096320;28;19955;-55
2022/08/26 02:44:33;;;;;;;;;;;23.60;81.40;;;;;;5114366;28;20321;-54
2022/08/26 02:46:59;;;;;;;;;;;23.60;81.40;;;;;;5114365;28;19912;-56
2022/08/26 02:49:25;;;;;;;;;;;23.60;81.40;;;;;;5114096;28;19915;-56
2022/08/26 02:51:51;;;;;;;;;;;23.60;81.40;;;;;;5114157;28;19912;-56
2022/08/26 02:54:17;;;;;;;;;;;23.60;81.40;;;;;;5114164;28;19930;-55
2022/08/26 02:56:43;;;;;;;;;;;23.60;81.40;;;;;;5114398;28;19914;-53
2022/08/26 02:59:11;;;;;;;;;;;23.60;81.40;;;;;;5114062;28;19908;-55
2022/08/26 03:01:37;;;;;;;;;;;23.60;81.40;;;;;;5114095;28;19907;-56
2022/08/26 03:04:04;;;;;;;;;;;23.60;81.40;;;;;;5113977;28;19995;-54
2022/08/26 03:06:29;;;;;;;;;;;23.60;81.50;;;;;;5113876;28;20346;-53
2022/08/26 03:08:55;;;;;;;;;;;23.60;81.40;;;;;;5113976;28;19947;-57
2022/08/26 03:11:21;;;;;;;;;;;23.60;81.40;;;;;;5114226;28;20377;-57
2022/08/26 03:13:46;;;;;;;;;;;23.60;81.40;;;;;;5114539;28;19930;-55
2022/08/26 03:16:12;;;;;;;;;;;23.60;81.40;;;;;;5114139;28;20434;-53
2022/08/26 03:18:37;;;;;;;;;;;23.60;81.40;;;;;;5114251;28;19931;-56
2022/08/26 03:21:07;;;;;;;;;;;23.60;81.40;;;;;;5114156;28;19908;-53
2022/08/26 03:23:32;;;;;;;;;;;23.60;81.50;;;;;;5114040;28;19959;-56
2022/08/26 03:25:58;;;;;;;;;;;23.60;81.50;;;;;;5113676;28;19919;-56
2022/08/26 03:28:23;;;;;;;;;;;23.60;81.40;;;;;;5095695;28;19915;-55
2022/08/26 03:30:49;;;;;;;;;;;23.60;81.50;;;;;;5096093;28;19912;-57
2022/08/26 03:33:15;;;;;;;;;;;23.60;81.50;;;;;;5113973;28;19939;-56
2022/08/26 03:35:42;;;;;;;;;;;23.60;81.50;;;;;;5113799;28;19911;-56
2022/08/26 03:38:08;;;;;;;;;;;23.60;81.50;;;;;;5114642;28;19908;-55
2022/08/26 03:40:37;;;;;;;;;;;23.60;81.50;;;;;;5117786;28;19915;-56
2022/08/26 03:43:04;;;;;;;;;;;23.60;81.50;;;;;;5117266;28;19911;-55
2022/08/26 03:45:29;;;;;;;;;;;23.60;81.50;;;;;;5117572;28;19919;-54
2022/08/26 03:47:55;;;;;;;;;;;23.60;81.50;;;;;;5117512;28;19908;-55
2022/08/26 03:50:21;;;;;;;;;;;23.60;81.50;;;;;;5117134;28;19916;-56
2022/08/26 03:52:47;;;;;;;;;;;23.60;81.50;;;;;;5117498;28;19908;-56
2022/08/26 03:55:13;;;;;;;;;;;23.60;81.50;;;;;;5117397;28;19914;-53
2022/08/26 03:57:39;;;;;;;;;;;23.60;81.50;;;;;;5117085;28;19912;-53
2022/08/26 04:00:06;;;;;;;;;;;23.60;81.50;;;;;;5116986;28;20333;-52
2022/08/26 04:02:31;;;;;;;;;;;23.60;81.50;;;;;;5117152;28;19912;-56
2022/08/26 04:04:56;;;;;;;;;;;23.60;81.50;;;;;;5117131;28;20397;-55
2022/08/26 04:07:24;;;;;;;;;;;23.60;81.50;;;;;;5116818;28;19908;-55
2022/08/26 04:09:54;;;;;;;;;;;23.60;81.50;;;;;;5117077;28;19965;-54
2022/08/26 04:12:19;;;;;;;;;;;23.60;81.50;;;;;;5117397;28;20354;-57
2022/08/26 04:14:46;;;;;;;;;;;23.60;81.50;;;;;;5116922;28;20002;-57
2022/08/26 04:17:12;;;;;;;;;;;23.60;81.50;;;;;;5117012;28;19999;-58
2022/08/26 04:19:37;;;;;;;;;;;23.60;81.50;;;;;;5116590;28;19908;-56
2022/08/26 04:22:03;;;;;;;;;;;23.60;81.50;;;;;;5116657;28;19908;-53
2022/08/26 04:24:28;;;;;;;;;;;23.60;81.50;;;;;;5116465;28;19911;-53
2022/08/26 04:26:55;;;;;;;;;;;23.60;81.50;;;;;;5098475;28;20355;-54
2022/08/26 04:29:22;;;;;;;;;;;23.60;81.50;;;;;;5116371;28;19911;-53
2022/08/26 04:31:48;;;;;;;;;;;23.60;81.50;;;;;;5116253;28;19998;-55
2022/08/26 04:34:14;;;;;;;;;;;23.60;81.50;;;;;;5116008;28;19944;-56
2022/08/26 04:36:40;;;;;;;;;;;23.60;81.50;;;;;;5116477;28;19961;-55
2022/08/26 04:39:05;;;;;;;;;;;23.60;81.50;;;;;;5116493;28;20266;-57
2022/08/26 04:41:31;;;;;;;;;;;23.60;81.50;;;;;;5116376;28;19915;-55
2022/08/26 04:43:57;;;;;;;;;;;23.60;81.50;;;;;;5116157;28;19916;-52
2022/08/26 04:46:24;;;;;;;;;;;23.60;81.50;;;;;;5116239;28;19911;-56
2022/08/26 04:48:51;;;;;;;;;;;23.60;81.50;;;;;;5115660;28;20342;-53
2022/08/26 04:51:17;;;;;;;;;;;23.60;81.50;;;;;;5115090;28;19915;-54
2022/08/26 04:53:42;;;;;;;;;;;23.60;81.50;;;;;;5116016;28;19908;-55
2022/08/26 04:56:08;;;;;;;;;;;23.60;81.50;;;;;;5115975;28;19950;-56
2022/08/26 04:58:34;;;;;;;;;;;23.60;81.50;;;;;;5115651;28;20396;-55
2022/08/26 05:01:00;;;;;;;;;;;23.60;81.50;;;;;;5116008;28;20379;-53
2022/08/26 05:03:26;;;;;;;;;;;23.60;81.50;;;;;;5115497;28;19911;-55
2022/08/26 05:05:51;;;;;;;;;;;23.60;81.50;;;;;;5115577;28;19957;-56
2022/08/26 05:08:18;;;;;;;;;;;23.60;81.50;;;;;;5115609;28;19994;-55
2022/08/26 05:10:45;;;;;;;;;;;23.60;81.50;;;;;;5116131;28;19907;-53
2022/08/26 05:13:11;;;;;;;;;;;23.60;81.50;;;;;;5115621;28;19918;-57
2022/08/26 05:15:36;;;;;;;;;;;23.60;81.50;;;;;;5115521;28;19919;-55
2022/08/26 05:18:03;;;;;;;;;;;23.60;81.50;;;;;;5115440;28;19907;-52
2022/08/26 05:20:29;;;;;;;;;;;23.60;81.50;;;;;;5115953;28;19912;-55
2022/08/26 05:22:54;;;;;;;;;;;23.60;81.50;;;;;;5115568;28;20479;-54
2022/08/26 05:25:20;;;;;;;;;;;23.60;81.50;;;;;;5115155;28;19915;-55
2022/08/26 05:27:45;;;;;;;;;;;23.60;81.50;;;;;;5115372;28;19908;-53
2022/08/26 05:30:11;;;;;;;;;;;23.60;81.50;;;;;;5097135;28;20048;-55
2022/08/26 05:32:36;;;;;;;;;;;23.60;81.50;;;;;;5115367;28;19915;-57
2022/08/26 05:35:02;;;;;;;;;;;23.60;81.50;;;;;;5115219;28;19908;-56
2022/08/26 05:37:27;;;;;;;;;;;23.60;81.40;;;;;;5097050;28;19908;-56
2022/08/26 05:39:53;;;;;;;;;;;23.70;81.50;;;;;;5115192;28;19960;-53
2022/08/26 05:42:18;;;;;;;;;;;23.70;81.50;;;;;;5114887;28;19930;-52
2022/08/26 05:44:44;;;;;;;;;;;23.70;81.50;;;;;;5114974;28;19954;-55
2022/08/26 05:47:09;;;;;;;;;;;23.60;81.40;;;;;;5115403;28;19915;-57
2022/08/26 05:49:35;;;;;;;;;;;23.70;81.50;;;;;;5114855;28;20362;-55
2022/08/26 05:52:00;;;;;;;;;;;23.70;82.00;;;;;;5114905;28;19920;-56
2022/08/26 05:54:26;;;;;;;;;;;23.70;81.40;;;;;;5115257;28;19908;-56
2022/08/26 05:56:52;;;;;;;;;;;23.60;81.40;;;;;;5114937;28;19932;-56
2022/08/26 05:59:18;;;;;;;;;;;23.60;81.40;;;;;;5114614;28;19912;-55
2022/08/26 06:01:43;;;;;;;;;;;23.70;81.50;;;;;;5114749;28;20074;-54
2022/08/26 06:04:09;;;;;;;;;;;23.70;81.40;;;;;;5114563;28;19915;-55
2022/08/26 06:06:35;;;;;;;;;;;23.70;81.40;;;;;;5114700;28;19997;-54
2022/08/26 06:09:03;;;;;;;;;;;23.70;81.50;;;;;;5096389;28;20307;-54
2022/08/26 06:11:31;;;;;;;;;;;23.70;81.50;;;;;;5114364;28;19951;-57
2022/08/26 06:13:58;;;;;;;;;;;23.60;81.40;;;;;;5096428;28;19947;-57
2022/08/26 06:16:24;;;;;;;;;;;23.70;81.40;;;;;;5113987;28;19920;-57
2022/08/26 06:18:50;;;;;;;;;;;23.70;81.40;;;;;;5114396;28;19915;-57
2022/08/26 06:21:22;;;;;;;;;;;23.70;81.40;;;;;;5096221;28;19908;-56
2022/08/26 06:26:32;;;;;;;;;;;23.70;81.40;;;;;;5114563;28;19919;-57
2022/08/26 06:28:58;;;;;;;;;;;23.70;81.30;;;;;;5095996;28;19911;-55
2022/08/26 06:31:24;;;;;;;;;;;23.70;81.30;;;;;;5114150;28;19908;-55
2022/08/26 06:33:49;;;;;;;;;;;23.70;81.30;;;;;;5114397;28;20200;-57
2022/08/26 06:36:16;;;;;;;;;;;23.70;81.30;;;;;;5114168;28;19908;-57
2022/08/26 06:38:41;;;;;;;;;;;23.70;81.30;;;;;;5114093;28;19946;-57
2022/08/26 06:41:09;;;;;;;;;;;23.70;81.30;;;;;;5113964;28;19908;-57
2022/08/26 06:43:35;;;;;;;;;;;23.70;81.30;;;;;;5114001;28;20006;-55
2022/08/26 06:46:04;;;;;;;;;;;23.70;81.30;;;;;;5113890;28;20370;-51
2022/08/26 06:48:30;;;;;;;;;;;23.70;81.30;;;;;;5114129;28;19932;-55
2022/08/26 06:51:06;;;;;;;;;;;23.70;81.30;;;;;;5113990;28;20359;-56
2022/08/26 06:53:32;;;;;;;;;;;23.70;81.30;;;;;;5114311;28;19915;-56
2022/08/26 06:55:57;;;;;;;;;;;23.70;81.30;;;;;;5114145;28;19907;-57
2022/08/26 06:58:23;;;;;;;;;;;23.70;81.30;;;;;;5113803;28;20010;-56
2022/08/26 07:00:48;;;;;;;;;;;23.70;81.30;;;;;;5114131;28;19908;-55
2022/08/26 07:03:13;;;;;;;;;;;23.70;81.30;;;;;;5113674;28;19911;-52
2022/08/26 07:05:39;;;;;;;;;;;23.70;81.30;;;;;;5113646;28;19918;-54
2022/08/26 07:08:05;;;;;;;;;;;23.70;81.30;;;;;;5095831;28;20347;-55
2022/08/26 07:10:30;;;;;;;;;;;23.70;81.30;;;;;;5113653;28;20317;-55
2022/08/26 07:12:56;;;;;;;;;;;23.70;81.30;;;;;;5114412;28;19950;-55
2022/08/26 07:15:21;;;;;;;;;;;23.70;81.30;;;;;;5117505;28;19927;-56
2022/08/26 07:17:47;;;;;;;;;;;23.70;81.30;;;;;;5118101;28;20343;-57
2022/08/26 07:20:12;;;;;;;;;;;23.70;81.30;;;;;;5117549;28;20255;-51
2022/08/26 07:22:38;;;;;;;;;;;23.70;81.30;;;;;;5117561;28;19951;-54
2022/08/26 07:25:08;;;;;;;;;;;23.70;81.30;;;;;;5117869;28;20278;-53
2022/08/26 07:27:34;;;;;;;;;;;23.70;81.30;;;;;;5117661;28;19907;-52
2022/08/26 07:29:59;;;;;;;;;;;23.70;81.30;;;;;;5117505;28;20041;-57
2022/08/26 07:32:25;;;;;;;;;;;23.70;81.30;;;;;;5099226;28;20365;-53
2022/08/26 07:34:50;;;;;;;;;;;23.70;81.30;;;;;;5117150;28;19934;-54
2022/08/26 07:37:16;;;;;;;;;;;23.70;81.30;;;;;;5117430;28;19908;-54
2022/08/26 07:39:42;;;;;;;;;;;23.80;81.30;;;;;;5117314;28;20338;-57
2022/08/26 07:42:08;;;;;;;;;;;23.80;81.40;;;;;;5117129;28;19954;-55
2022/08/26 07:44:34;;;;;;;;;;;23.70;81.40;;;;;;5117203;28;20333;-54
2022/08/26 07:46:59;;;;;;;;;;;23.80;81.40;;;;;;5117136;28;19911;-53
2022/08/26 07:49:25;;;;;;;;;;;23.80;81.40;;;;;;5117390;28;19914;-54
2022/08/26 07:51:51;;;;;;;;;;;23.70;81.40;;;;;;5117001;28;20285;-56
2022/08/26 07:54:17;;;;;;;;;;;23.80;81.40;;;;;;5117037;28;19908;-56
2022/08/26 07:56:43;;;;;;;;;;;23.70;81.40;;;;;;5116584;28;20350;-57
2022/08/26 07:59:09;;;;;;;;;;;23.80;81.40;;;;;;5116741;28;19908;-56
2022/08/26 08:01:35;;;;;;;;;;;23.70;81.40;;;;;;5117450;28;19915;-56
2022/08/26 08:04:00;;;;;;;;;;;23.80;81.40;;;;;;5116919;28;19916;-52
2022/08/26 08:06:26;;;;;;;;;;;23.80;81.40;;;;;;5116823;28;19964;-55
2022/08/26 08:08:51;;;;;;;;;;;23.80;81.40;;;;;;5116558;28;19908;-56
2022/08/26 08:11:20;;;;;;;;;;;23.80;81.50;;;;;;5116828;28;19908;-57
2022/08/26 08:13:46;;;;;;;;;;;23.80;81.50;;;;;;5116863;28;19916;-57
2022/08/26 08:16:12;;;;;;;;;;;23.80;81.50;;;;;;5116524;28;19920;-55
2022/08/26 08:18:37;;;;;;;;;;;23.80;81.50;;;;;;5116674;28;19908;-52
2022/08/26 08:21:03;;;;;;;;;;;23.80;81.50;;;;;;5116649;28;20003;-54
2022/08/26 08:23:29;;;;;;;;;;;23.80;81.50;;;;;;5116654;28;19911;-52
2022/08/26 08:26:06;;;;;;;;;;;23.80;81.50;;;;;;5115072;28;20254;-57
2022/08/26 08:28:31;;;;;;;;;;;23.80;81.50;;;;;;5116655;28;19943;-55
2022/08/26 08:30:57;;;;;;;;;;;23.80;81.50;;;;;;5116613;28;19955;-55
2022/08/26 08:33:23;;;;;;;;;;;23.80;81.50;;;;;;5116415;28;20431;-54
2022/08/26 08:35:48;;;;;;;;;;;23.80;81.50;;;;;;5116473;28;19954;-52
2022/08/26 08:38:14;;;;;;;;;;;23.80;81.60;;;;;;5116660;28;19912;-57
2022/08/26 08:40:40;;;;;;;;;;;23.80;81.50;;;;;;5116325;28;20310;-56
2022/08/26 08:43:09;;;;;;;;;;;23.80;81.60;;;;;;5116292;28;19912;-53
2022/08/26 08:46:04;;;;;;;;;;;23.80;81.60;;;;;;5116304;28;19911;-55
2022/08/26 08:48:31;;;;;;;;;;;23.80;81.50;;;;;;5094087;28;19912;-55
2022/08/26 08:51:15;;;;;;;;;;;23.80;81.60;;;;;;5115872;28;20040;-55
2022/08/26 08:53:43;;;;;;;;;;;23.80;81.50;;;;;;5116105;28;20010;-56
2022/08/26 08:56:14;;;;;;;;;;;23.80;81.60;;;;;;5116171;28;19908;-54
2022/08/26 08:58:48;;;;;;;;;;;23.80;81.60;;;;;;5116017;28;19911;-56
2022/08/26 09:01:34;;;;;;;;;;;23.80;81.60;;;;;;5115788;28;19908;-56
2022/08/26 09:03:59;;;;;;;;;;;23.80;81.60;;;;;;5114665;28;19911;-52
2022/08/26 09:06:25;;;;;;;;;;;23.80;81.70;;;;;;5097436;28;19919;-56
2022/08/26 09:08:50;;;;;;;;;;;23.80;81.60;;;;;;5115328;28;20023;-55
2022/08/26 09:11:17;;;;;;;;;;;23.80;81.70;;;;;;5115520;28;19930;-54
2022/08/26 09:13:45;;;;;;;;;;;23.80;81.60;;;;;;5115574;28;19908;-54
2022/08/26 09:16:16;;;;;;;;;;;23.80;81.60;;;;;;5115445;28;20010;-57
2022/08/26 09:18:44;;;;;;;;;;;23.80;81.60;;;;;;5115519;28;19915;-53
2022/08/26 09:21:12;;;;;;;;;;;23.80;81.60;;;;;;5115687;28;19915;-56
2022/08/26 09:23:39;;;;;;;;;;;23.80;81.60;;;;;;5115550;28;19911;-56
2022/08/26 09:26:16;;;;;;;;;;;23.80;81.60;;;;;;5115333;28;19957;-56
2022/08/26 09:28:44;;;;;;;;;;;23.80;81.70;;;;;;5115279;28;20350;-57
2022/08/26 09:31:18;;;;;;;;;;;23.80;81.60;;;;;;5115373;28;19914;-56
2022/08/26 09:33:43;;;;;;;;;;;23.80;81.70;;;;;;5114835;28;19908;-57
2022/08/26 09:36:21;;;;;;;;;;;23.80;81.70;;;;;;5114409;28;19908;-56
2022/08/26 09:38:48;;;;;;;;;;;23.80;81.70;;;;;;5114945;28;20019;-56
2022/08/26 09:41:34;;;;;;;;;;;23.80;81.70;;;;;;5114899;28;20002;-57
2022/08/26 09:44:07;;;;;;;;;;;23.80;81.70;;;;;;5114647;28;20318;-56
2022/08/26 09:46:33;;;;;;;;;;;23.80;81.70;;;;;;5096183;28;19918;-55
2022/08/26 09:49:18;;;;;;;;;;;23.80;81.70;;;;;;5115277;28;19908;-56
2022/08/26 09:51:44;;;;;;;;;;;23.80;81.70;;;;;;5114751;28;19933;-56
2022/08/26 09:54:22;;;;;;;;;;;23.80;82.20;;;;;;5114720;28;19933;-57
2022/08/26 09:56:47;;;;;;;;;;;23.80;81.70;;;;;;5114530;28;20354;-58
2022/08/26 09:59:27;;;;;;;;;;;23.80;81.70;;;;;;5114901;28;19908;-55
2022/08/26 10:01:53;;;;;;;;;;;23.80;81.70;;;;;;5114899;28;19911;-57
2022/08/26 10:04:20;;;;;;;;;;;23.90;81.80;;;;;;5114713;28;19965;-57
2022/08/26 10:06:55;;;;;;;;;;;23.90;81.80;;;;;;5114764;28;19911;-53
2022/08/26 10:09:21;;;;;;;;;;;23.90;81.90;;;;;;5114756;28;19911;-57
2022/08/26 10:11:54;;;;;;;;;;;23.90;81.80;;;;;;5114406;28;19915;-56
2022/08/26 10:14:23;;;;;;;;;;;23.90;81.90;;;;;;5096387;28;19908;-55
2022/08/26 10:17:00;;;;;;;;;;;23.90;81.80;;;;;;5115029;28;19920;-55
2022/08/26 10:19:34;;;;;;;;;;;23.90;81.80;;;;;;5114610;28;19914;-54
2022/08/26 10:22:10;;;;;;;;;;;23.90;81.90;;;;;;5114558;28;19915;-55
2022/08/26 10:24:44;;;;;;;;;;;23.90;81.80;;;;;;5113925;28;19981;-55
2022/08/26 10:27:17;;;;;;;;;;;23.90;81.90;;;;;;5114750;28;20299;-56
2022/08/26 10:29:45;;;;;;;;;;;23.90;81.90;;;;;;5114168;28;20309;-55
2022/08/26 10:32:15;;;;;;;;;;;23.90;81.90;;;;;;5114425;28;19914;-55
2022/08/26 10:34:41;;;;;;;;;;;23.90;81.90;;;;;;5114685;28;19914;-55
2022/08/26 10:37:09;;;;;;;;;;;23.90;81.80;;;;;;5114125;28;19947;-55
2022/08/26 10:39:50;;;;;;;;;;;23.90;81.80;;;;;;5114115;28;19915;-55
2022/08/26 10:42:25;;;;;;;;;;;23.90;81.90;;;;;;5114447;28;19990;-55
2022/08/26 10:44:53;;;;;;;;;;;23.90;82.00;;;;;;5113872;28;19916;-54
2022/08/26 10:47:36;;;;;;;;;;;23.90;82.00;;;;;;5114128;28;19911;-56
2022/08/26 10:50:02;;;;;;;;;;;23.90;81.90;;;;;;5118644;28;20003;-55
2022/08/26 10:52:32;;;;;;;;;;;23.90;81.90;;;;;;5118199;28;20006;-54
2022/08/26 10:55:06;;;;;;;;;;;23.90;82.00;;;;;;5118716;28;19998;-53
2022/08/26 10:57:34;;;;;;;;;;;23.90;82.00;;;;;;5118435;28;19911;-55
2022/08/26 11:01:40;;;;;;;;;;;23.90;82.00;;;;;;5117729;28;19912;-56
2022/08/26 11:02:58;;;;;;;;;;;23.90;82.00;;;;;;5117962;28;19912;-54
2022/08/26 11:05:24;;;;;;;;;;;23.90;82.00;;;;;;5118037;28;19916;-53
2022/08/26 11:07:51;;;;;;;;;;;23.90;82.00;;;;;;5117916;28;20491;-54
2022/08/26 11:10:19;;;;;;;;;;;23.90;82.00;;;;;;5117843;28;19907;-55
2022/08/26 11:13:05;;;;;;;;;;;23.90;82.00;;;;;;5117933;28;19907;-54
2022/08/26 11:15:31;;;;;;;;;;;23.90;81.90;;;;;;5116992;28;20006;-55
2022/08/26 11:18:01;;;;;;;;;;;23.90;81.90;;;;;;5117235;28;20028;-55
2022/08/26 11:20:26;;;;;;;;;;;23.90;81.90;;;;;;5117824;28;19907;-54
2022/08/26 11:22:53;;;;;;;;;;;23.90;82.00;;;;;;5117718;28;19961;-56
2022/08/26 11:25:19;;;;;;;;;;;23.90;82.00;;;;;;5117776;28;19990;-56
2022/08/26 11:27:49;;;;;;;;;;;23.90;82.00;;;;;;5117487;28;20304;-54
2022/08/26 11:30:14;;;;;;;;;;;23.90;82.00;;;;;;5117663;28;19951;-57
2022/08/26 11:32:40;;;;;;;;;;;23.90;82.00;;;;;;5117325;28;19965;-54
2022/08/26 11:35:05;;;;;;;;;;;23.90;82.00;;;;;;5117281;28;19907;-53
2022/08/26 11:37:34;;;;;;;;;;;23.90;82.50;;;;;;5117455;28;19961;-57
2022/08/26 11:40:01;;;;;;;;;;;23.90;82.00;;;;;;5117532;28;19908;-54
2022/08/26 11:42:47;;;;;;;;;;;23.90;82.00;;;;;;5117359;28;20358;-56
2022/08/26 11:45:25;;;;;;;;;;;23.90;82.00;;;;;;5099024;28;20333;-55
2022/08/26 11:47:51;;;;;;;;;;;23.90;82.00;;;;;;5116910;28;20342;-55
2022/08/26 11:50:22;;;;;;;;;;;23.90;82.10;;;;;;5117022;28;20021;-53
2022/08/26 11:52:55;;;;;;;;;;;24.00;82.20;;;;;;5116822;28;20381;-51
2022/08/26 11:55:21;;;;;;;;;;;23.90;82.10;;;;;;5117125;28;19934;-55
2022/08/26 11:57:50;;;;;;;;;;;23.90;82.10;;;;;;5116654;28;20289;-55
2022/08/26 12:00:20;;;;;;;;;;;23.90;82.00;;;;;;5116779;28;19912;-55
2022/08/26 12:02:45;;;;;;;;;;;23.90;82.10;;;;;;5117289;28;19907;-56
2022/08/26 12:05:21;;;;;;;;;;;23.90;82.00;;;;;;5116625;28;19985;-56
2022/08/26 12:07:50;;;;;;;;;;;23.90;82.10;;;;;;5116581;28;19908;-55
2022/08/26 12:10:28;;;;;;;;;;;23.90;82.00;;;;;;5116667;28;19931;-53
2022/08/26 12:12:56;;;;;;;;;;;23.90;82.10;;;;;;5098086;28;19916;-55
2022/08/26 12:15:22;;;;;;;;;;;24.00;82.10;;;;;;5116369;28;19920;-52
2022/08/26 12:17:49;;;;;;;;;;;23.90;82.00;;;;;;5116713;28;19908;-56
2022/08/26 12:20:28;;;;;;;;;;;23.90;82.00;;;;;;5116822;28;20366;-56
2022/08/26 12:22:53;;;;;;;;;;;24.00;82.10;;;;;;5116325;28;19908;-50
2022/08/26 12:25:21;;;;;;;;;;;24.00;82.10;;;;;;5098006;28;19935;-52
2022/08/26 12:27:47;;;;;;;;;;;24.00;82.00;;;;;;5115801;28;20361;-54
2022/08/26 12:30:14;;;;;;;;;;;23.90;82.00;;;;;;5115642;28;19908;-56
2022/08/26 12:32:43;;;;;;;;;;;24.00;82.10;;;;;;5116318;28;19919;-53
2022/08/26 12:35:10;;;;;;;;;;;24.00;82.60;;;;;;5116272;28;20019;-56
2022/08/26 12:37:38;;;;;;;;;;;24.00;82.00;;;;;;5116143;28;20009;-56
2022/08/26 12:40:22;;;;;;;;;;;24.00;82.10;;;;;;5116115;28;19933;-52
2022/08/26 12:42:48;;;;;;;;;;;24.00;82.10;;;;;;5116113;28;19999;-53
2022/08/26 12:45:24;;;;;;;;;;;24.00;82.00;;;;;;5115745;28;19912;-54
2022/08/26 12:47:53;;;;;;;;;;;24.00;82.00;;;;;;5097756;28;19911;-54
2022/08/26 12:50:21;;;;;;;;;;;24.00;82.10;;;;;;5115879;28;19930;-55
2022/08/26 12:52:50;;;;;;;;;;;24.00;82.00;;;;;;5097824;28;19957;-54
2022/08/26 12:55:20;;;;;;;;;;;24.00;82.00;;;;;;5115680;28;19951;-56
2022/08/26 12:57:46;;;;;;;;;;;24.00;82.00;;;;;;5116020;28;20401;-54
2022/08/26 13:00:23;;;;;;;;;;;24.00;82.00;;;;;;5116109;28;19908;-56
2022/08/26 13:02:49;;;;;;;;;;;24.00;82.00;;;;;;5097345;28;19908;-54
2022/08/26 13:05:19;;;;;;;;;;;24.00;82.00;;;;;;5115390;28;19965;-56
2022/08/26 13:08:04;;;;;;;;;;;24.00;82.00;;;;;;5097439;28;19908;-53
2022/08/26 13:10:35;;;;;;;;;;;24.00;81.90;;;;;;5114745;28;19920;-51
2022/08/26 13:13:00;;;;;;;;;;;24.00;82.00;;;;;;5115400;28;19919;-53
2022/08/26 13:15:26;;;;;;;;;;;24.00;82.00;;;;;;5115251;28;19920;-54
2022/08/26 13:17:51;;;;;;;;;;;24.00;82.00;;;;;;5097149;28;19908;-52
2022/08/26 13:20:17;;;;;;;;;;;24.00;82.50;;;;;;5115051;28;19987;-57
2022/08/26 13:22:42;;;;;;;;;;;24.00;82.00;;;;;;5115330;28;20247;-50
2022/08/26 13:25:08;;;;;;;;;;;24.00;82.00;;;;;;5115104;28;19916;-56
2022/08/26 13:27:33;;;;;;;;;;;24.00;82.00;;;;;;5097043;28;20368;-54
2022/08/26 13:30:00;;;;;;;;;;;24.00;82.00;;;;;;5115039;28;19915;-55
2022/08/26 13:32:26;;;;;;;;;;;24.00;82.00;;;;;;5115252;28;20415;-56
2022/08/26 13:34:52;;;;;;;;;;;24.00;82.00;;;;;;5115004;28;19912;-55
2022/08/26 13:37:21;;;;;;;;;;;24.00;82.00;;;;;;5115251;28;19908;-56
2022/08/26 13:39:47;;;;;;;;;;;24.00;82.00;;;;;;5115178;28;19923;-56
2022/08/26 13:42:12;;;;;;;;;;;24.00;82.10;;;;;;5114671;28;20274;-55
2022/08/26 13:44:38;;;;;;;;;;;24.00;82.00;;;;;;5114707;28;19912;-55
2022/08/26 13:47:04;;;;;;;;;;;24.00;82.00;;;;;;5114639;28;19918;-53
2022/08/26 13:49:29;;;;;;;;;;;24.00;82.00;;;;;;5114332;28;19908;-54
2022/08/26 13:51:54;;;;;;;;;;;24.00;82.00;;;;;;5115020;28;19921;-56
2022/08/26 13:54:20;;;;;;;;;;;24.00;82.00;;;;;;5114896;28;19919;-54
2022/08/26 13:56:46;;;;;;;;;;;24.00;82.00;;;;;;5114765;28;19907;-58
2022/08/26 13:59:11;;;;;;;;;;;24.00;82.00;;;;;;5114787;28;20006;-53
2022/08/26 14:01:38;;;;;;;;;;;24.10;82.00;;;;;;5096491;28;19915;-55
2022/08/26 14:04:04;;;;;;;;;;;24.00;82.00;;;;;;5114750;28;19912;-55
2022/08/26 14:06:30;;;;;;;;;;;24.00;81.90;;;;;;5114366;28;20011;-56
2022/08/26 14:08:55;;;;;;;;;;;24.00;82.00;;;;;;5114350;28;19908;-55
2022/08/26 14:11:21;;;;;;;;;;;24.10;82.10;;;;;;5114540;28;20365;-54
2022/08/26 14:13:47;;;;;;;;;;;24.00;82.00;;;;;;5114201;28;19943;-54
2022/08/26 14:16:24;;;;;;;;;;;24.10;82.10;;;;;;5114255;28;19927;-56
2022/08/26 14:18:50;;;;;;;;;;;24.10;82.10;;;;;;5114264;28;20007;-55
2022/08/26 14:21:15;;;;;;;;;;;24.00;82.00;;;;;;5114056;28;19959;-51
2022/08/26 14:23:41;;;;;;;;;;;24.10;82.00;;;;;;5113130;28;19980;-56